Ponca City Regional Airport
KPNC : now visible

Airfield :











YOU CAN JOIN US ON...

 
LOGIN :

Register | Disclaimer

   EN    FR    IT 

 









Legend :    VFR   Marginal VFR   IFR   Intensive IFR   Very Intensive IFR
Visi :
Ceiling :
>= 8 km
>= 3000ft
5 to 8 km
1000 to 3000 ft
1500m to 5 km
500 to 1000 ft
800 to 1500m
200 to 500 ft
< 800m
< 200 ft
Symbols :   Thunderstorms  Fog  Heavy snow  Heavy precipitations  Wind > 20 kt






- Airport Elevation : 1008 ft


KPNC - Ponca City Regional

CURRENT METAR :
  • 241653Z AUTO 35017G20KT 10SM CLR 10/M03 A3014 RMK AO2 SLP206 T01001028

EXPIRED METARs :
  • 241553Z AUTO 36017KT 10SM CLR 09/M03 A3011 RMK AO2 SLP195 T00941028
  • 241453Z AUTO 36017KT 10SM CLR 08/M03 A3008 RMK AO2 SLP184 T00781028 53046

TAF KPNC
Valid from the 24 at 12:00 until the 25 at 12:00 UTC


241126Z 2412/2512 02020G35KT P6SM SKC WS020/02050KT
FM241600 01015G25KT P6SM SKC
FM250000 01010G15KT P6SM SCT120
FM250700 04010KT P6SM SCT120
KZKC FIR / North America



MET'MAP, your aeronautical weather chart ! - Copyright ORBIFLY December 2007 - Disclaimer

ORBIFLY MET'MAP TEAM :

Programming & Development : Alexandra Zaïnal
Concept & original design : Baudouin d'Aumeries
Assistance for programming : Marc-Olivier Méhu
Technical & hardware support : Manuel Goepfert

Contact : metmap@orbifly.com




SOURCES & CREDITS :

   NOAA       Earth
Advisory